createdAt,value
2017-05-21T00:00:58.766Z,51.50
2017-05-21T00:03:28.432Z,51.20
2017-05-21T00:05:58.281Z,51.00
2017-05-21T00:08:27.661Z,51.00
2017-05-21T00:10:57.516Z,50.80
2017-05-21T00:13:26.744Z,50.80
2017-05-21T00:15:55.003Z,50.80
2017-05-21T00:18:24.993Z,50.80
2017-05-21T00:20:54.688Z,50.60
2017-05-21T00:23:24.648Z,50.50
2017-05-21T00:25:53.613Z,50.50
2017-05-21T00:28:22.717Z,50.50
2017-05-21T00:30:51.932Z,50.50
2017-05-21T00:33:23.235Z,50.40
2017-05-21T00:35:53.901Z,50.30
2017-05-21T00:38:22.913Z,50.20
2017-05-21T00:40:52.409Z,50.20
2017-05-21T00:43:22.717Z,50.20
2017-05-21T00:45:51.238Z,49.70
2017-05-21T00:48:20.177Z,49.20
2017-05-21T00:50:49.884Z,49.20
2017-05-21T00:53:19.025Z,49.40
2017-05-21T00:55:48.552Z,49.50
2017-05-21T00:58:18.221Z,49.50
2017-05-21T01:00:47.684Z,49.40
2017-05-21T01:03:17.409Z,49.40
2017-05-21T01:05:47.981Z,49.30
2017-05-21T01:08:16.748Z,49.30
2017-05-21T01:10:46.012Z,49.30
2017-05-21T01:13:14.285Z,49.30
2017-05-21T01:15:44.847Z,49.60
2017-05-21T01:18:14.324Z,49.50
2017-05-21T01:20:43.421Z,49.60
2017-05-21T01:23:13.057Z,49.70
2017-05-21T01:25:42.064Z,49.70
2017-05-21T01:28:12.001Z,49.80
2017-05-21T01:30:41.553Z,49.70
2017-05-21T01:33:10.800Z,50.20
2017-05-21T01:35:39.489Z,50.10
2017-05-21T01:38:07.973Z,50.40
2017-05-21T01:40:36.969Z,49.90
2017-05-21T01:43:05.453Z,49.90
2017-05-21T01:45:34.924Z,49.00
2017-05-21T01:48:03.877Z,49.00
2017-05-21T01:50:33.905Z,50.90
2017-05-21T01:53:03.463Z,50.40
2017-05-21T01:55:32.205Z,50.40
2017-05-21T01:58:03.136Z,49.70
2017-05-21T02:00:33.248Z,50.00
2017-05-21T02:03:01.742Z,50.00
2017-05-21T02:05:30.620Z,50.20
2017-05-21T02:08:00.013Z,51.00
2017-05-21T02:10:29.158Z,51.50
2017-05-21T02:12:58.300Z,51.00
2017-05-21T02:15:28.180Z,50.90
2017-05-21T02:17:58.229Z,50.50
2017-05-21T02:20:27.893Z,50.60
2017-05-21T02:22:57.880Z,50.90
2017-05-21T02:25:26.170Z,50.80
2017-05-21T02:27:56.548Z,49.90
2017-05-21T02:30:26.491Z,50.00
2017-05-21T02:32:55.124Z,49.90
2017-05-21T02:35:24.125Z,47.60
2017-05-21T02:37:54.013Z,48.20
2017-05-21T02:40:23.492Z,48.60
2017-05-21T02:42:56.171Z,48.80
2017-05-21T02:45:26.238Z,48.40
2017-05-21T02:47:56.037Z,48.00
2017-05-21T02:50:25.245Z,47.30
2017-05-21T02:52:54.325Z,47.30
2017-05-21T02:55:23.132Z,47.70
2017-05-21T02:57:52.606Z,46.00
2017-05-21T03:00:21.584Z,46.00
2017-05-21T03:02:49.825Z,46.10
2017-05-21T03:05:20.913Z,45.80
2017-05-21T03:07:51.129Z,45.10
2017-05-21T03:10:21.121Z,45.40
2017-05-21T03:12:50.906Z,45.00
2017-05-21T03:15:19.779Z,44.90
2017-05-21T03:17:49.901Z,42.20
2017-05-21T03:20:18.852Z,42.00
2017-05-21T03:22:48.568Z,42.00
2017-05-21T03:25:17.648Z,41.80
2017-05-21T03:27:45.893Z,41.10
2017-05-21T03:30:21.716Z,40.80
2017-05-21T03:32:50.565Z,40.60
2017-05-21T03:35:21.708Z,39.50
2017-05-21T03:37:53.033Z,39.30
2017-05-21T03:40:24.109Z,39.40
2017-05-21T03:42:54.090Z,39.20
2017-05-21T03:45:23.037Z,39.20
2017-05-21T03:47:52.497Z,39.00
2017-05-21T03:50:21.653Z,39.20
2017-05-21T03:52:50.336Z,39.20
2017-05-21T03:55:19.524Z,39.30
2017-05-21T03:57:49.149Z,38.20
2017-05-21T04:00:17.763Z,38.20
2017-05-21T04:02:49.537Z,37.00
2017-05-21T04:05:19.180Z,36.70
2017-05-21T04:07:47.637Z,36.60
2017-05-21T04:10:16.617Z,36.20
2017-05-21T04:12:45.724Z,35.80
2017-05-21T04:15:15.204Z,35.80
2017-05-21T04:17:46.154Z,35.40
2017-05-21T04:20:15.965Z,34.70
2017-05-21T04:22:45.333Z,34.40
2017-05-21T04:25:16.281Z,34.20
2017-05-21T04:27:46.975Z,33.30
2017-05-21T04:30:15.957Z,32.80
2017-05-21T04:32:46.545Z,32.60
2017-05-21T04:35:15.592Z,32.60
2017-05-21T04:37:44.633Z,30.30
2017-05-21T04:40:14.253Z,28.20
2017-05-21T04:42:43.589Z,26.50
2017-05-21T04:45:13.204Z,24.80
2017-05-21T04:47:42.461Z,24.80
2017-05-21T04:50:10.957Z,23.70
2017-05-21T04:52:40.600Z,22.20
2017-05-21T04:55:10.077Z,22.80
2017-05-21T04:57:38.681Z,22.80
2017-05-21T05:00:08.345Z,24.50
2017-05-21T05:02:37.869Z,24.50
2017-05-21T05:05:07.141Z,24.30
2017-05-21T05:07:36.530Z,24.30
2017-05-21T05:10:06.825Z,24.30
2017-05-21T05:12:36.617Z,22.00
2017-05-21T05:15:07.336Z,21.10
2017-05-21T05:17:36.409Z,21.10
2017-05-21T05:20:05.885Z,19.90
2017-05-21T05:22:34.204Z,19.90
2017-05-21T05:25:02.996Z,19.70
2017-05-21T05:27:31.444Z,20.00
2017-05-21T05:30:00.684Z,21.10
2017-05-21T05:32:30.385Z,22.50
2017-05-21T05:35:00.173Z,22.90
2017-05-21T05:37:29.484Z,23.70
2017-05-21T05:39:59.480Z,23.70
2017-05-21T05:42:29.557Z,24.10
2017-05-21T05:44:59.484Z,24.20
2017-05-21T05:47:27.928Z,24.20
2017-05-21T05:49:56.340Z,24.20
2017-05-21T05:52:26.069Z,22.10
2017-05-21T05:54:54.353Z,22.10
2017-05-21T05:57:24.190Z,21.10
2017-05-21T05:59:54.576Z,20.60
2017-05-21T06:02:23.828Z,20.70
2017-05-21T06:04:52.796Z,20.60
2017-05-21T06:07:23.673Z,20.30
2017-05-21T06:09:52.445Z,20.30
2017-05-21T06:12:21.369Z,20.60
2017-05-21T06:14:50.125Z,21.20
2017-05-21T06:17:19.265Z,21.80
2017-05-21T06:19:49.109Z,23.70
2017-05-21T06:22:18.340Z,24.10
2017-05-21T06:24:47.716Z,24.80
2017-05-21T06:27:17.025Z,25.00
2017-05-21T06:29:47.685Z,25.30
2017-05-21T06:32:16.141Z,25.30
2017-05-21T06:34:45.621Z,25.90
2017-05-21T06:37:16.127Z,26.30
2017-05-21T06:39:45.577Z,26.30
2017-05-21T06:42:14.716Z,26.60
2017-05-21T06:44:43.823Z,26.50
2017-05-21T06:47:13.758Z,26.90
2017-05-21T06:49:43.908Z,26.80
2017-05-21T06:52:13.829Z,26.20
2017-05-21T06:54:43.869Z,24.20
2017-05-21T06:57:13.052Z,24.20
2017-05-21T06:59:42.509Z,23.10
2017-05-21T07:02:11.617Z,23.00
2017-05-21T07:04:41.394Z,22.90
2017-05-21T07:07:11.780Z,22.50
2017-05-21T07:09:41.873Z,22.40
2017-05-21T07:12:11.112Z,22.70
2017-05-21T07:14:40.301Z,23.00
2017-05-21T07:17:09.385Z,23.00
2017-05-21T07:19:37.709Z,24.00
2017-05-21T07:22:07.063Z,25.70
2017-05-21T07:24:36.337Z,25.70
2017-05-21T07:27:04.598Z,26.50
2017-05-21T07:29:34.021Z,28.00
2017-05-21T07:32:02.656Z,28.00
2017-05-21T07:34:30.920Z,28.60
2017-05-21T07:37:00.668Z,30.00
2017-05-21T07:39:29.842Z,30.50
2017-05-21T07:41:59.493Z,30.50
2017-05-21T07:44:30.205Z,31.70
2017-05-21T07:46:59.805Z,31.70
2017-05-21T07:49:30.428Z,30.90
2017-05-21T07:51:59.837Z,31.10
2017-05-21T07:54:29.730Z,31.40
2017-05-21T07:56:58.609Z,31.40
2017-05-21T07:59:27.764Z,31.00
2017-05-21T08:01:56.837Z,32.30
2017-05-21T08:04:26.457Z,32.30
2017-05-21T08:06:56.535Z,32.40
2017-05-21T08:09:25.405Z,32.60
2017-05-21T08:11:53.994Z,33.30
2017-05-21T08:14:23.945Z,33.50
2017-05-21T08:16:52.532Z,33.40
2017-05-21T08:19:21.603Z,33.70
2017-05-21T08:21:50.916Z,33.50
2017-05-21T08:24:19.394Z,33.40
2017-05-21T08:26:48.569Z,35.70
2017-05-21T08:29:18.341Z,34.90
2017-05-21T08:31:47.240Z,34.90
2017-05-21T08:34:16.829Z,34.80
2017-05-21T08:36:45.956Z,35.10
2017-05-21T08:39:16.608Z,33.90
2017-05-21T08:41:46.613Z,33.80
2017-05-21T08:44:16.065Z,33.10
2017-05-21T08:46:44.545Z,33.10
2017-05-21T08:49:13.657Z,32.70
2017-05-21T08:51:43.324Z,34.60
2017-05-21T08:54:14.402Z,34.60
2017-05-21T08:56:44.912Z,34.30
2017-05-21T08:59:14.505Z,34.30
2017-05-21T09:01:45.933Z,35.30
2017-05-21T09:04:15.118Z,35.30
2017-05-21T09:06:46.798Z,35.70
2017-05-21T09:09:18.506Z,36.20
2017-05-21T09:11:48.703Z,36.10
2017-05-21T09:14:18.821Z,36.10
2017-05-21T09:16:48.993Z,36.20
2017-05-21T09:19:19.669Z,36.30
2017-05-21T09:21:49.370Z,36.30
2017-05-21T09:24:18.528Z,36.20
2017-05-21T09:26:49.146Z,36.40
2017-05-21T09:29:18.225Z,36.40
2017-05-21T09:31:48.189Z,36.40
2017-05-21T09:34:18.933Z,36.80
2017-05-21T09:36:47.944Z,37.50
2017-05-21T09:39:17.528Z,37.70
2017-05-21T09:41:47.226Z,37.70
2017-05-21T09:44:18.448Z,37.60
2017-05-21T09:46:46.861Z,37.60
2017-05-21T09:49:16.489Z,37.90
2017-05-21T09:51:46.489Z,37.80
2017-05-21T09:54:16.489Z,37.20
2017-05-21T09:56:46.352Z,38.20
2017-05-21T09:59:30.395Z,37.90
2017-05-21T10:02:00.323Z,37.70
2017-05-21T10:04:29.328Z,37.70
2017-05-21T10:06:57.634Z,37.60
2017-05-21T10:09:27.061Z,36.90
2017-05-21T10:11:56.343Z,37.50
2017-05-21T10:14:25.681Z,37.70
2017-05-21T10:16:56.661Z,37.80
2017-05-21T10:19:25.162Z,37.80
2017-05-21T10:21:54.664Z,37.90
2017-05-21T10:24:24.273Z,38.20
2017-05-21T10:26:53.004Z,37.60
2017-05-21T10:29:22.201Z,38.60
2017-05-21T10:31:52.025Z,38.90
2017-05-21T10:34:21.441Z,39.40
2017-05-21T10:36:50.563Z,39.90
2017-05-21T10:39:19.926Z,39.90
2017-05-21T10:41:50.681Z,39.70
2017-05-21T10:44:21.265Z,40.00
2017-05-21T10:46:50.576Z,40.10
2017-05-21T10:49:19.765Z,39.90
2017-05-21T10:51:50.556Z,40.10
2017-05-21T10:54:18.941Z,40.10
2017-05-21T10:56:48.236Z,40.30
2017-05-21T10:59:17.005Z,40.50
2017-05-21T11:01:47.029Z,40.70
2017-05-21T11:04:15.797Z,40.70
2017-05-21T11:06:44.911Z,41.20
2017-05-21T11:09:14.693Z,42.10
2017-05-21T11:11:43.845Z,42.40
2017-05-21T11:14:13.445Z,42.60
2017-05-21T11:16:43.152Z,42.50
2017-05-21T11:19:11.913Z,42.80
2017-05-21T11:21:40.785Z,42.70
2017-05-21T11:24:09.213Z,43.10
2017-05-21T11:26:38.260Z,43.00
2017-05-21T11:29:07.533Z,42.90
2017-05-21T11:31:37.157Z,42.10
2017-05-21T11:34:06.411Z,42.10
2017-05-21T11:36:34.881Z,42.10
2017-05-21T11:39:04.368Z,43.10
2017-05-21T11:41:33.748Z,42.80
2017-05-21T11:44:02.975Z,44.20
2017-05-21T11:46:31.405Z,44.20
2017-05-21T11:48:59.730Z,44.10
2017-05-21T11:51:30.797Z,44.60
2017-05-21T11:54:01.546Z,45.70
2017-05-21T11:56:31.256Z,45.90
2017-05-21T11:58:59.693Z,46.50
2017-05-21T12:01:28.725Z,46.40
2017-05-21T12:04:03.012Z,46.60
2017-05-21T12:06:32.779Z,47.30
2017-05-21T12:09:02.726Z,46.30
2017-05-21T12:11:31.433Z,46.30
2017-05-21T12:14:01.280Z,46.50
2017-05-21T12:16:31.360Z,46.30
2017-05-21T12:19:01.733Z,46.30
2017-05-21T12:21:30.875Z,45.30
2017-05-21T12:24:03.193Z,45.70
2017-05-21T12:26:34.068Z,45.50
2017-05-21T12:29:06.794Z,45.50
2017-05-21T12:31:36.096Z,45.90
2017-05-21T12:34:07.269Z,46.10
2017-05-21T12:36:36.752Z,46.10
2017-05-21T12:39:05.789Z,47.00
2017-05-21T12:41:35.529Z,47.60
2017-05-21T12:44:04.398Z,47.60
2017-05-21T12:46:32.661Z,48.10
2017-05-21T12:49:00.932Z,48.20
2017-05-21T12:51:30.580Z,48.30
2017-05-21T12:53:58.855Z,48.30
2017-05-21T12:56:28.649Z,48.40
2017-05-21T12:59:02.582Z,48.50
2017-05-21T13:01:31.757Z,48.50
2017-05-21T13:04:01.833Z,48.40
2017-05-21T13:06:32.286Z,48.60
2017-05-21T13:09:01.831Z,49.20
2017-05-21T13:11:31.191Z,49.20
2017-05-21T13:14:01.956Z,49.50
2017-05-21T13:16:31.833Z,49.30
2017-05-21T13:19:01.595Z,49.30
2017-05-21T13:21:30.785Z,49.90
2017-05-21T13:23:59.819Z,49.90
2017-05-21T13:26:29.275Z,50.40
2017-05-21T13:28:57.650Z,50.50
2017-05-21T13:31:26.169Z,50.70
2017-05-21T13:33:55.338Z,50.90
2017-05-21T13:36:25.289Z,51.00
2017-05-21T13:38:54.445Z,51.60
2017-05-21T13:41:22.766Z,51.60
2017-05-21T13:43:52.781Z,53.10
2017-05-21T13:46:22.063Z,52.70
2017-05-21T13:48:52.490Z,52.70
2017-05-21T13:51:22.430Z,54.00
2017-05-21T13:53:51.349Z,54.00
2017-05-21T13:56:19.901Z,54.80
2017-05-21T13:58:49.668Z,55.50
2017-05-21T14:01:19.940Z,56.00
2017-05-21T14:03:51.667Z,56.50
2017-05-21T14:06:22.122Z,56.80
2017-05-21T14:08:52.556Z,57.20
2017-05-21T14:11:22.231Z,56.80
2017-05-21T14:13:51.811Z,57.10
2017-05-21T14:16:21.085Z,57.10
2017-05-21T14:18:51.270Z,57.20
2017-05-21T14:21:19.753Z,57.20
2017-05-21T14:23:49.263Z,58.10
2017-05-21T14:26:19.033Z,58.60
2017-05-21T14:28:48.723Z,59.00
2017-05-21T14:31:17.404Z,58.90
2017-05-21T14:33:47.345Z,60.90
2017-05-21T14:36:16.868Z,61.60
2017-05-21T14:38:46.600Z,62.00
2017-05-21T14:41:15.982Z,62.50
2017-05-21T14:43:45.806Z,63.30
2017-05-21T14:46:14.933Z,63.40
2017-05-21T14:48:44.250Z,63.30
2017-05-21T14:51:12.769Z,64.20
2017-05-21T14:53:41.997Z,64.90
2017-05-21T14:56:11.343Z,65.00
2017-05-21T14:58:40.888Z,65.00
2017-05-21T15:01:11.238Z,66.50
2017-05-21T15:03:45.388Z,66.60
2017-05-21T15:06:14.782Z,66.30
2017-05-21T15:08:43.769Z,66.40
2017-05-21T15:11:14.695Z,67.40
2017-05-21T15:13:50.676Z,67.60
2017-05-21T15:16:21.391Z,67.70
2017-05-21T15:18:50.189Z,68.60
2017-05-21T15:21:19.751Z,69.00
2017-05-21T15:23:48.369Z,69.80
2017-05-21T15:26:18.897Z,71.10
2017-05-21T15:28:49.073Z,71.50
2017-05-21T15:31:17.844Z,71.40
2017-05-21T15:33:47.770Z,72.30
2017-05-21T15:36:16.685Z,72.10
2017-05-21T15:38:45.665Z,72.50
2017-05-21T15:41:15.269Z,72.90
2017-05-21T15:43:44.428Z,73.00
2017-05-21T15:46:13.521Z,72.90
2017-05-21T15:48:43.189Z,73.50
2017-05-21T15:51:14.480Z,73.70
2017-05-21T15:53:43.697Z,73.80
2017-05-21T15:56:12.595Z,73.80
2017-05-21T15:58:41.375Z,74.20
2017-05-21T16:01:10.779Z,74.10
2017-05-21T16:03:40.524Z,73.80
2017-05-21T16:06:09.973Z,74.10
2017-05-21T16:08:39.965Z,73.00
2017-05-21T16:11:08.703Z,73.00
2017-05-21T16:13:37.837Z,73.30
2017-05-21T16:16:07.477Z,73.20
2017-05-21T16:18:38.318Z,73.20
2017-05-21T16:21:06.560Z,73.20
2017-05-21T16:23:35.061Z,73.70
2017-05-21T16:26:04.285Z,73.60
2017-05-21T16:28:33.652Z,73.70
2017-05-21T16:31:03.122Z,74.50
2017-05-21T16:33:31.653Z,74.50
2017-05-21T16:36:00.710Z,73.90
2017-05-21T16:38:30.492Z,72.80
2017-05-21T16:41:00.438Z,73.00
2017-05-21T16:43:29.813Z,73.00
2017-05-21T16:45:59.605Z,74.60
2017-05-21T16:48:28.397Z,74.60
2017-05-21T16:50:57.860Z,75.40
2017-05-21T16:53:27.319Z,76.60
2017-05-21T16:55:56.605Z,75.40
2017-05-21T16:58:27.246Z,75.40
2017-05-21T17:00:57.957Z,75.40
2017-05-21T17:03:27.345Z,75.50
2017-05-21T17:05:57.005Z,75.60
2017-05-21T17:08:26.006Z,74.80
2017-05-21T17:10:55.668Z,74.80
2017-05-21T17:13:24.445Z,74.80
2017-05-21T17:15:55.309Z,74.30
2017-05-21T17:18:24.358Z,74.40
2017-05-21T17:20:53.796Z,73.70
2017-05-21T17:23:22.452Z,73.70
2017-05-21T17:25:53.189Z,72.40
2017-05-21T17:28:22.091Z,72.40
2017-05-21T17:30:51.961Z,72.40
2017-05-21T17:33:21.745Z,72.60
2017-05-21T17:35:50.521Z,72.60
2017-05-21T17:38:20.205Z,73.10
2017-05-21T17:40:49.233Z,73.50
2017-05-21T17:43:18.150Z,73.60
2017-05-21T17:45:47.162Z,74.30
2017-05-21T17:48:16.540Z,74.20
2017-05-21T17:50:46.636Z,74.30
2017-05-21T17:53:17.616Z,75.80
2017-05-21T17:55:46.817Z,75.70
2017-05-21T17:58:20.512Z,75.70
2017-05-21T18:00:51.033Z,75.50
2017-05-21T18:03:19.483Z,75.50
2017-05-21T18:05:48.669Z,74.70
2017-05-21T18:08:18.371Z,73.80
2017-05-21T18:10:47.777Z,74.50
2017-05-21T18:13:17.578Z,74.50
2017-05-21T18:15:47.346Z,74.80
2017-05-21T18:18:16.533Z,75.50
2017-05-21T18:20:47.246Z,75.90
2017-05-21T18:23:16.973Z,75.60
2017-05-21T18:25:46.617Z,76.30
2017-05-21T18:28:16.997Z,77.30
2017-05-21T18:30:46.281Z,77.70
2017-05-21T18:33:14.681Z,77.70
2017-05-21T18:35:43.730Z,77.90
2017-05-21T18:38:13.781Z,77.20
2017-05-21T18:40:43.487Z,77.40
2017-05-21T18:43:12.317Z,77.40
2017-05-21T18:45:41.725Z,76.80
2017-05-21T18:48:12.325Z,76.80
2017-05-21T18:50:41.797Z,77.10
2017-05-21T18:53:11.441Z,77.90
2017-05-21T18:55:40.789Z,77.30
2017-05-21T18:58:09.861Z,77.30
2017-05-21T19:00:38.421Z,77.30
2017-05-21T19:03:08.738Z,77.40
2017-05-21T19:05:37.731Z,78.10
2017-05-21T19:08:06.374Z,78.10
2017-05-21T19:10:35.553Z,78.40
2017-05-21T19:13:04.978Z,78.00
2017-05-21T19:15:34.153Z,79.00
2017-05-21T19:18:02.801Z,79.10
2017-05-21T19:20:31.790Z,79.00
2017-05-21T19:23:00.968Z,78.90
2017-05-21T19:25:29.253Z,78.90
2017-05-21T19:27:58.617Z,80.00
2017-05-21T19:30:26.997Z,79.90
2017-05-21T19:32:55.998Z,79.40
2017-05-21T19:35:24.296Z,80.30
2017-05-21T19:37:53.630Z,80.80
2017-05-21T19:40:22.997Z,80.60
2017-05-21T19:42:54.949Z,80.70
2017-05-21T19:45:24.416Z,80.70
2017-05-21T19:47:53.136Z,80.70
2017-05-21T19:50:22.377Z,80.40
2017-05-21T19:52:51.768Z,80.40
2017-05-21T19:55:21.276Z,80.80
2017-05-21T19:57:50.041Z,80.80
2017-05-21T20:00:20.997Z,81.50
2017-05-21T20:02:50.952Z,81.50
2017-05-21T20:05:21.009Z,81.60
2017-05-21T20:07:50.846Z,82.70
2017-05-21T20:10:19.103Z,82.70
2017-05-21T20:12:48.901Z,83.40
2017-05-21T20:15:18.360Z,82.60
2017-05-21T20:17:47.401Z,83.00
2017-05-21T20:20:16.757Z,82.40
2017-05-21T20:22:45.575Z,82.40
2017-05-21T20:25:14.752Z,82.30
2017-05-21T20:27:43.777Z,82.90
2017-05-21T20:30:13.768Z,82.70
2017-05-21T20:32:43.254Z,84.20
2017-05-21T20:35:11.765Z,84.20
2017-05-21T20:37:43.005Z,84.20
2017-05-21T20:40:12.777Z,84.80
2017-05-21T20:42:41.805Z,83.70
2017-05-21T20:45:10.248Z,84.60
2017-05-21T20:47:40.093Z,85.30
2017-05-21T20:50:10.509Z,85.80
2017-05-21T20:52:41.081Z,84.80
2017-05-21T20:55:11.957Z,85.50
2017-05-21T20:57:41.225Z,86.20
2017-05-21T21:00:09.760Z,86.20
2017-05-21T21:02:38.017Z,86.40
2017-05-21T21:05:07.857Z,87.30
2017-05-21T21:07:36.878Z,86.90
2017-05-21T21:10:06.544Z,87.20
2017-05-21T21:12:35.897Z,87.20
2017-05-21T21:15:05.037Z,87.00
2017-05-21T21:17:33.316Z,87.10
2017-05-21T21:20:02.976Z,87.30
2017-05-21T21:22:32.193Z,87.40
2017-05-21T21:25:01.573Z,87.40
2017-05-21T21:27:30.373Z,87.70
2017-05-21T21:29:58.708Z,87.80
2017-05-21T21:32:28.421Z,87.40
2017-05-21T21:34:57.588Z,87.60
2017-05-21T21:37:26.695Z,87.60
2017-05-21T21:39:56.234Z,88.30
2017-05-21T21:42:26.220Z,88.20
2017-05-21T21:44:55.940Z,88.20
2017-05-21T21:47:24.460Z,88.20
2017-05-21T21:49:53.946Z,87.60
2017-05-21T21:52:22.969Z,87.50
2017-05-21T21:54:52.372Z,87.70
2017-05-21T21:57:21.557Z,88.20
2017-05-21T21:59:51.331Z,88.10
2017-05-21T22:02:21.384Z,87.80
2017-05-21T22:04:52.129Z,87.90
2017-05-21T22:07:21.170Z,87.90
2017-05-21T22:09:49.496Z,87.30
2017-05-21T22:12:19.102Z,87.50
2017-05-21T22:14:50.309Z,87.40
2017-05-21T22:17:20.013Z,87.60
2017-05-21T22:19:50.158Z,87.20
2017-05-21T22:22:19.778Z,87.80
2017-05-21T22:24:49.632Z,87.60
2017-05-21T22:27:19.000Z,87.50
2017-05-21T22:29:48.372Z,87.90
2017-05-21T22:32:17.425Z,87.80
2017-05-21T22:34:47.105Z,88.20
2017-05-21T22:37:16.060Z,87.70
2017-05-21T22:39:45.817Z,87.10
2017-05-21T22:42:15.988Z,87.60
2017-05-21T22:44:45.140Z,88.10
2017-05-21T22:47:15.836Z,87.20
2017-05-21T22:49:45.350Z,86.70
2017-05-21T22:52:15.176Z,87.00
2017-05-21T22:54:44.996Z,86.50
2017-05-21T22:57:14.081Z,86.50
2017-05-21T22:59:43.633Z,86.10
2017-05-21T23:02:12.761Z,86.00
2017-05-21T23:04:43.241Z,85.00
2017-05-21T23:07:12.941Z,85.20
2017-05-21T23:09:41.695Z,85.50
2017-05-21T23:12:11.650Z,85.50
2017-05-21T23:14:41.132Z,85.40
2017-05-21T23:17:10.306Z,84.50
2017-05-21T23:19:40.352Z,85.00
2017-05-21T23:22:10.189Z,85.00
2017-05-21T23:24:39.884Z,85.00
2017-05-21T23:27:08.865Z,84.90
2017-05-21T23:29:38.186Z,84.80
2017-05-21T23:32:08.201Z,84.30
2017-05-21T23:34:37.828Z,84.10
2017-05-21T23:37:06.992Z,84.00
2017-05-21T23:39:35.949Z,84.00
2017-05-21T23:42:04.777Z,83.60
2017-05-21T23:44:33.958Z,83.50
2017-05-21T23:47:03.666Z,83.50
2017-05-21T23:49:33.509Z,82.60
2017-05-21T23:52:02.740Z,82.50
2017-05-21T23:54:33.623Z,82.20
2017-05-21T23:57:02.760Z,81.70
2017-05-21T23:59:30.996Z,81.70
